createdAt,value
2019-04-14T00:01:45.838Z,79.50
2019-04-14T00:04:22.648Z,80.10
2019-04-14T00:06:52.864Z,79.20
2019-04-14T00:09:22.748Z,79.80
2019-04-14T00:11:52.750Z,80.30
2019-04-14T00:14:23.017Z,81.20
2019-04-14T00:16:53.341Z,80.90
2019-04-14T00:19:23.861Z,80.30
2019-04-14T00:21:54.424Z,80.70
2019-04-14T00:24:24.937Z,80.00
2019-04-14T00:26:55.230Z,80.30
2019-04-14T00:29:26.341Z,80.70
2019-04-14T00:31:57.014Z,80.90
2019-04-14T00:34:35.356Z,81.50
2019-04-14T00:37:22.866Z,81.10
2019-04-14T00:39:55.459Z,81.30
2019-04-14T00:42:42.995Z,81.40
2019-04-14T00:45:32.735Z,81.80
2019-04-14T00:48:06.418Z,81.50
2019-04-14T00:50:31.957Z,81.20
2019-04-14T00:53:03.104Z,81.90
2019-04-14T00:55:33.535Z,82.00
2019-04-14T00:58:03.836Z,83.30
2019-04-14T01:00:34.207Z,83.80
2019-04-14T01:03:04.785Z,84.00
2019-04-14T01:05:35.939Z,83.80
2019-04-14T01:08:07.266Z,83.70
2019-04-14T01:10:37.125Z,84.10
2019-04-14T01:13:09.936Z,83.30
2019-04-14T01:15:48.111Z,84.00
2019-04-14T01:18:10.103Z,84.80
2019-04-14T01:20:40.629Z,85.00
2019-04-14T01:23:10.634Z,85.10
2019-04-14T01:25:41.023Z,85.20
2019-04-14T01:28:11.295Z,85.20
2019-04-14T01:30:41.519Z,85.40
2019-04-14T01:33:11.927Z,85.90
2019-04-14T01:35:42.186Z,85.80
2019-04-14T01:38:12.548Z,86.60
2019-04-14T01:40:42.531Z,86.60
2019-04-14T01:43:12.547Z,86.40
2019-04-14T01:45:42.511Z,87.50
2019-04-14T01:48:12.712Z,88.40
2019-04-14T01:51:13.768Z,88.60
2019-04-14T01:54:11.203Z,88.80
2019-04-14T01:56:53.636Z,89.00
2019-04-14T01:59:24.163Z,89.60
2019-04-14T02:01:54.822Z,88.70
2019-04-14T02:04:24.641Z,89.20
2019-04-14T02:06:55.192Z,88.90
2019-04-14T02:09:25.216Z,89.30
2019-04-14T02:11:55.244Z,89.80
2019-04-14T02:14:25.515Z,90.10
2019-04-14T02:16:58.709Z,90.30
2019-04-14T02:19:26.649Z,90.40
2019-04-14T02:21:56.453Z,90.60
2019-04-14T02:24:26.379Z,90.60
2019-04-14T02:26:57.007Z,90.90
2019-04-14T02:29:27.628Z,91.40
2019-04-14T02:32:27.206Z,91.50
2019-04-14T02:35:15.089Z,91.90
2019-04-14T02:37:28.298Z,92.30
2019-04-14T02:42:34.330Z,92.70
2019-04-14T02:45:00.688Z,93.10
2019-04-14T02:52:34.920Z,93.20
2019-04-14T02:55:05.532Z,93.80
2019-04-14T03:00:09.366Z,94.30
2019-04-14T03:02:42.324Z,94.40
2019-04-14T03:05:09.670Z,94.80
2019-04-14T03:07:45.888Z,95.10
2019-04-14T03:10:17.908Z,95.10
2019-04-14T03:12:54.840Z,95.30
2019-04-14T03:15:20.091Z,95.50
2019-04-14T03:20:55.695Z,95.80
2019-04-14T03:26:25.321Z,96.10
2019-04-14T03:28:56.670Z,96.20
2019-04-14T03:39:06.118Z,96.80
2019-04-14T03:41:37.241Z,96.60
2019-04-14T03:44:11.850Z,96.40
2019-04-14T03:46:50.155Z,96.50
2019-04-14T03:49:14.118Z,96.40
2019-04-14T03:51:57.699Z,96.20
2019-04-14T03:54:09.699Z,96.40
2019-04-14T03:56:48.919Z,96.50
2019-04-14T03:59:19.710Z,96.10
2019-04-14T04:01:52.124Z,96.00
2019-04-14T04:04:22.706Z,96.00
2019-04-14T04:06:53.179Z,96.00
2019-04-14T04:09:29.960Z,96.00
2019-04-14T04:12:00.576Z,96.10
2019-04-14T04:14:31.338Z,95.90
2019-04-14T04:17:21.168Z,95.80
2019-04-14T04:19:56.105Z,95.70
2019-04-14T04:22:45.601Z,95.60
2019-04-14T04:25:26.929Z,95.70
2019-04-14T04:28:30.550Z,95.80
2019-04-14T04:31:06.734Z,95.40
2019-04-14T04:33:46.152Z,95.40
2019-04-14T04:36:22.510Z,95.20
2019-04-14T04:39:03.872Z,95.40
2019-04-14T04:41:34.024Z,94.80
2019-04-14T04:44:04.971Z,94.60
2019-04-14T04:46:35.159Z,94.30
2019-04-14T04:49:11.688Z,94.00
2019-04-14T04:51:37.750Z,93.70
2019-04-14T04:54:08.157Z,93.80
2019-04-14T04:56:38.711Z,93.50
2019-04-14T04:59:09.677Z,93.30
2019-04-14T05:01:40.702Z,93.50
2019-04-14T05:04:11.094Z,93.00
2019-04-14T05:07:09.944Z,92.90
2019-04-14T05:09:55.499Z,93.00
2019-04-14T05:12:47.948Z,92.70
2019-04-14T05:15:40.268Z,92.60
2019-04-14T05:18:20.042Z,92.20
2019-04-14T05:20:51.008Z,92.00
2019-04-14T05:23:21.316Z,91.90
2019-04-14T05:25:53.867Z,91.80
2019-04-14T05:28:24.520Z,91.70
2019-04-14T05:30:54.722Z,91.50
2019-04-14T05:33:25.029Z,91.10
2019-04-14T05:35:55.336Z,91.10
2019-04-14T05:38:26.187Z,91.00
2019-04-14T05:40:56.369Z,90.60
2019-04-14T05:43:35.929Z,90.80
2019-04-14T05:45:57.437Z,90.60
2019-04-14T05:48:27.261Z,90.80
2019-04-14T05:50:57.754Z,90.50
2019-04-14T05:53:28.356Z,90.00
2019-04-14T05:55:59.280Z,89.60
2019-04-14T05:58:31.704Z,88.60
2019-04-14T06:01:02.391Z,87.90
2019-04-14T06:03:32.210Z,87.50
2019-04-14T06:06:01.924Z,86.40
2019-04-14T06:08:31.608Z,85.80
2019-04-14T06:11:01.333Z,86.30
2019-04-14T06:13:31.078Z,85.00
2019-04-14T06:16:00.892Z,85.30
2019-04-14T06:18:30.816Z,84.30
2019-04-14T06:21:00.480Z,82.70
2019-04-14T06:23:30.158Z,81.30
2019-04-14T06:25:59.880Z,82.40
2019-04-14T06:28:29.572Z,80.70
2019-04-14T06:31:26.463Z,80.70
2019-04-14T06:34:15.095Z,77.90
2019-04-14T06:37:13.170Z,76.20
2019-04-14T06:39:45.759Z,73.90
2019-04-14T06:42:15.454Z,74.90
2019-04-14T06:44:45.156Z,74.30
2019-04-14T06:47:16.499Z,73.20
2019-04-14T06:49:49.272Z,73.00
2019-04-14T06:52:17.639Z,72.10
2019-04-14T06:54:47.364Z,71.10
2019-04-14T06:57:17.051Z,70.10
2019-04-14T06:59:46.730Z,69.70
2019-04-14T07:02:16.468Z,69.10
2019-04-14T07:04:46.189Z,69.50
2019-04-14T07:07:15.894Z,68.40
2019-04-14T07:09:45.608Z,68.70
2019-04-14T07:12:15.416Z,67.40
2019-04-14T07:14:45.113Z,66.60
2019-04-14T07:17:14.820Z,66.60
2019-04-14T07:19:44.529Z,67.10
2019-04-14T07:22:15.729Z,67.80
2019-04-14T07:24:45.928Z,65.00
2019-04-14T07:27:15.642Z,63.60
2019-04-14T07:30:00.441Z,62.60
2019-04-14T07:33:01.921Z,62.70
2019-04-14T07:35:51.353Z,62.40
2019-04-14T07:38:29.692Z,61.10
2019-04-14T07:41:12.031Z,60.90
2019-04-14T07:43:59.566Z,60.30
2019-04-14T07:46:55.561Z,60.20
2019-04-14T07:50:13.939Z,59.90
2019-04-14T07:52:51.651Z,60.20
2019-04-14T07:55:49.110Z,59.80
2019-04-14T07:58:36.280Z,59.50
2019-04-14T08:01:26.025Z,59.50
2019-04-14T08:04:09.857Z,60.30
2019-04-14T08:06:44.120Z,58.90
2019-04-14T08:09:13.859Z,59.00
2019-04-14T08:11:43.540Z,58.00
2019-04-14T08:14:13.270Z,58.20
2019-04-14T08:16:42.989Z,57.40
2019-04-14T08:19:13.939Z,57.80
2019-04-14T08:21:43.675Z,56.90
2019-04-14T08:24:13.355Z,56.30
2019-04-14T08:26:43.069Z,56.20
2019-04-14T08:29:12.820Z,55.90
2019-04-14T08:31:42.534Z,56.10
2019-04-14T08:34:12.207Z,56.00
2019-04-14T08:36:41.924Z,55.40
2019-04-14T08:39:11.659Z,55.60
2019-04-14T08:42:03.000Z,55.40
2019-04-14T08:44:51.591Z,55.40
2019-04-14T08:47:27.380Z,54.00
2019-04-14T08:50:16.465Z,53.80
2019-04-14T08:53:03.903Z,53.50
2019-04-14T08:55:48.965Z,53.50
2019-04-14T08:58:46.771Z,52.60
2019-04-14T09:01:37.064Z,52.50
2019-04-14T09:04:20.577Z,53.10
2019-04-14T09:06:57.596Z,52.60
2019-04-14T09:09:51.792Z,52.30
2019-04-14T09:12:26.485Z,51.50
2019-04-14T09:14:57.482Z,52.10
2019-04-14T09:17:29.487Z,51.90
2019-04-14T09:20:00.230Z,51.50
2019-04-14T09:22:30.503Z,51.40
2019-04-14T09:25:00.205Z,52.40
2019-04-14T09:27:29.989Z,51.80
2019-04-14T09:29:59.674Z,51.20
2019-04-14T09:32:32.852Z,51.60
2019-04-14T09:35:02.535Z,51.80
2019-04-14T09:37:32.239Z,52.00
2019-04-14T09:40:01.970Z,51.60
2019-04-14T09:42:32.571Z,50.90
2019-04-14T09:45:02.303Z,50.90
2019-04-14T09:47:31.975Z,50.40
2019-04-14T09:50:01.678Z,50.90
2019-04-14T09:52:31.404Z,51.20
2019-04-14T09:55:02.216Z,51.70
2019-04-14T09:57:31.904Z,51.70
2019-04-14T10:00:01.681Z,51.30
2019-04-14T10:02:31.401Z,51.40
2019-04-14T10:05:13.943Z,50.80
2019-04-14T10:07:44.851Z,50.60
2019-04-14T10:10:14.694Z,50.00
2019-04-14T10:12:44.415Z,50.00
2019-04-14T10:15:14.218Z,50.00
2019-04-14T10:17:43.954Z,49.10
2019-04-14T10:20:13.704Z,49.00
2019-04-14T10:22:43.827Z,48.80
2019-04-14T10:25:15.383Z,48.60
2019-04-14T10:27:45.068Z,48.90
2019-04-14T10:30:15.313Z,49.10
2019-04-14T10:32:46.505Z,47.90
2019-04-14T10:35:16.252Z,47.40
2019-04-14T10:37:45.923Z,47.30
2019-04-14T10:40:15.838Z,47.60
2019-04-14T10:42:45.567Z,47.00
2019-04-14T10:45:18.116Z,47.10
2019-04-14T10:47:46.588Z,47.00
2019-04-14T10:50:16.402Z,46.80
2019-04-14T10:52:46.102Z,45.90
2019-04-14T10:55:15.814Z,46.70
2019-04-14T10:57:45.577Z,47.00
2019-04-14T11:00:17.524Z,47.50
2019-04-14T11:02:47.228Z,47.40
2019-04-14T11:05:16.977Z,47.40
2019-04-14T11:07:46.675Z,46.90
2019-04-14T11:10:17.605Z,46.60
2019-04-14T11:12:47.298Z,46.50
2019-04-14T11:15:17.161Z,46.60
2019-04-14T11:17:46.944Z,46.50
2019-04-14T11:20:16.732Z,45.80
2019-04-14T11:22:46.444Z,45.40
2019-04-14T11:25:16.127Z,45.70
2019-04-14T11:27:45.829Z,46.30
2019-04-14T11:30:21.032Z,45.80
2019-04-14T11:33:09.632Z,45.70
2019-04-14T11:35:57.322Z,46.40
2019-04-14T11:38:33.234Z,46.70
2019-04-14T11:41:05.214Z,45.50
2019-04-14T11:43:36.101Z,45.30
2019-04-14T11:46:07.499Z,45.40
2019-04-14T11:48:37.185Z,45.30
2019-04-14T11:51:06.905Z,45.20
2019-04-14T11:53:37.039Z,45.10
2019-04-14T11:56:07.155Z,45.40
2019-04-14T11:58:36.967Z,45.20
2019-04-14T12:01:39.509Z,44.80
2019-04-14T12:04:26.795Z,43.60
2019-04-14T12:07:24.760Z,42.80
2019-04-14T12:10:14.899Z,43.50
2019-04-14T12:12:44.627Z,43.70
2019-04-14T12:15:16.530Z,43.50
2019-04-14T12:17:46.657Z,43.30
2019-04-14T12:20:18.865Z,42.40
2019-04-14T12:22:48.551Z,43.20
2019-04-14T12:25:18.240Z,43.20
2019-04-14T12:27:49.004Z,42.20
2019-04-14T12:30:20.490Z,42.70
2019-04-14T12:32:56.482Z,42.60
2019-04-14T12:35:27.231Z,43.30
2019-04-14T12:37:57.033Z,43.50
2019-04-14T12:40:26.797Z,44.00
2019-04-14T12:43:00.995Z,43.40
2019-04-14T12:45:55.619Z,42.60
2019-04-14T12:49:02.244Z,41.80
2019-04-14T12:51:47.819Z,42.70
2019-04-14T12:54:17.517Z,43.50
2019-04-14T12:56:47.227Z,43.30
2019-04-14T12:59:23.443Z,42.40
2019-04-14T13:02:06.631Z,42.90
2019-04-14T13:04:36.379Z,42.20
2019-04-14T13:07:06.162Z,42.20
2019-04-14T13:09:35.848Z,42.00
2019-04-14T13:12:05.864Z,42.20
2019-04-14T13:14:35.537Z,42.50
2019-04-14T13:17:05.235Z,42.30
2019-04-14T13:19:34.937Z,42.20
2019-04-14T13:22:04.836Z,42.30
2019-04-14T13:24:35.077Z,42.70
2019-04-14T13:27:04.756Z,42.40
2019-04-14T13:29:34.461Z,41.70
2019-04-14T13:32:06.156Z,42.40
2019-04-14T13:34:35.846Z,41.90
2019-04-14T13:37:05.656Z,41.40
2019-04-14T13:39:35.393Z,40.90
2019-04-14T13:42:05.793Z,41.30
2019-04-14T13:44:35.508Z,41.00
2019-04-14T13:47:05.294Z,41.60
2019-04-14T13:49:35.517Z,42.10
2019-04-14T13:52:05.228Z,42.30
2019-04-14T13:54:35.601Z,41.80
2019-04-14T13:57:05.376Z,41.20
2019-04-14T13:59:35.129Z,41.30
2019-04-14T14:02:05.155Z,41.30
2019-04-14T14:04:34.924Z,41.70
2019-04-14T14:07:05.326Z,42.00
2019-04-14T14:09:35.015Z,42.70
2019-04-14T14:12:22.292Z,42.00
2019-04-14T14:15:24.173Z,41.70
2019-04-14T14:18:11.709Z,41.80
2019-04-14T14:21:03.064Z,41.60
2019-04-14T14:23:57.488Z,41.70
2019-04-14T14:26:28.187Z,41.90
2019-04-14T14:28:58.045Z,41.80
2019-04-14T14:31:29.748Z,42.30
2019-04-14T14:33:59.432Z,42.00
2019-04-14T14:36:29.183Z,42.00
2019-04-14T14:38:58.860Z,41.20
2019-04-14T14:41:29.118Z,41.70
2019-04-14T14:43:58.822Z,41.30
2019-04-14T14:46:47.027Z,41.90
2019-04-14T14:49:24.344Z,42.30
2019-04-14T14:52:02.184Z,42.50
2019-04-14T14:54:31.965Z,42.40
2019-04-14T14:57:01.652Z,41.80
2019-04-14T14:59:31.389Z,41.90
2019-04-14T15:02:01.071Z,42.00
2019-04-14T15:04:30.798Z,41.90
2019-04-14T15:07:00.481Z,41.40
2019-04-14T15:09:30.168Z,41.30
2019-04-14T15:11:59.884Z,41.20
2019-04-14T15:14:29.571Z,41.30
2019-04-14T15:16:59.438Z,41.20
2019-04-14T15:19:29.130Z,41.10
2019-04-14T15:21:58.818Z,41.60
2019-04-14T15:24:28.602Z,41.10
2019-04-14T15:26:58.258Z,40.80
2019-04-14T15:29:27.989Z,41.30
2019-04-14T15:31:57.668Z,41.40
2019-04-14T15:34:27.360Z,42.40
2019-04-14T15:36:57.098Z,41.70
2019-04-14T15:39:26.783Z,42.10
2019-04-14T15:41:56.480Z,42.30
2019-04-14T15:44:26.209Z,42.20
2019-04-14T15:46:55.993Z,41.90
2019-04-14T15:49:27.935Z,41.70
2019-04-14T15:51:57.731Z,41.70
2019-04-14T15:54:27.528Z,42.20
2019-04-14T15:57:06.105Z,42.80
2019-04-14T16:00:04.088Z,42.90
2019-04-14T16:02:48.653Z,42.80
2019-04-14T16:05:46.322Z,42.20
2019-04-14T16:08:21.070Z,42.00
2019-04-14T16:10:57.879Z,41.90
2019-04-14T16:13:37.608Z,42.20
2019-04-14T16:16:29.194Z,42.60
2019-04-14T16:19:12.745Z,43.20
2019-04-14T16:21:42.514Z,43.50
2019-04-14T16:24:12.227Z,43.80
2019-04-14T16:26:48.016Z,44.20
2019-04-14T16:29:27.067Z,44.50
2019-04-14T16:32:30.536Z,44.80
2019-04-14T16:35:03.331Z,45.40
2019-04-14T16:37:35.703Z,45.20
2019-04-14T16:40:06.307Z,44.70
2019-04-14T16:42:36.001Z,45.00
2019-04-14T16:45:06.380Z,45.00
2019-04-14T16:47:36.517Z,45.10
2019-04-14T16:50:07.502Z,45.70
2019-04-14T16:52:50.790Z,46.20
2019-04-14T16:55:39.380Z,46.40
2019-04-14T16:58:20.059Z,46.90
2019-04-14T17:00:54.587Z,47.20
2019-04-14T17:03:24.417Z,47.10
2019-04-14T17:05:54.253Z,47.10
2019-04-14T17:08:23.990Z,47.10
2019-04-14T17:10:53.781Z,46.90
2019-04-14T17:13:25.071Z,47.00
2019-04-14T17:16:20.532Z,47.20
2019-04-14T17:18:54.752Z,47.40
2019-04-14T17:21:52.477Z,47.70
2019-04-14T17:24:47.039Z,47.70
2019-04-14T17:27:20.901Z,48.20
2019-04-14T17:30:00.337Z,48.30
2019-04-14T17:32:46.952Z,48.70
2019-04-14T17:35:33.106Z,48.90
2019-04-14T17:38:05.819Z,49.20
2019-04-14T17:41:09.689Z,49.40
2019-04-14T17:43:43.899Z,49.60
2019-04-14T17:46:28.693Z,49.90
2019-04-14T17:49:11.600Z,50.10
2019-04-14T17:51:58.651Z,50.20
2019-04-14T17:54:46.498Z,50.50
2019-04-14T17:57:41.118Z,50.50
2019-04-14T18:00:19.004Z,51.00
2019-04-14T18:02:55.803Z,50.70
2019-04-14T18:05:50.323Z,50.90
2019-04-14T18:08:45.104Z,50.90
2019-04-14T18:11:33.702Z,51.10
2019-04-14T18:14:25.265Z,51.30
2019-04-14T18:17:12.969Z,51.60
2019-04-14T18:20:10.278Z,51.90
2019-04-14T18:22:40.883Z,52.00
2019-04-14T18:25:10.795Z,52.10
2019-04-14T18:27:50.615Z,52.20
2019-04-14T18:30:27.734Z,52.30
2019-04-14T18:33:05.878Z,52.70
2019-04-14T18:35:54.532Z,53.00
2019-04-14T18:38:41.957Z,53.20
2019-04-14T18:41:36.556Z,53.50
2019-04-14T18:44:17.189Z,53.80
2019-04-14T18:47:08.295Z,53.90
2019-04-14T18:49:55.891Z,54.40
2019-04-14T18:52:43.391Z,54.60
2019-04-14T18:55:26.195Z,54.90
2019-04-14T18:58:13.264Z,55.00
2019-04-14T19:00:54.768Z,55.30
2019-04-14T19:03:24.536Z,55.50
2019-04-14T19:05:54.239Z,56.10
2019-04-14T19:08:23.965Z,56.70
2019-04-14T19:11:07.490Z,57.00
2019-04-14T19:13:37.325Z,57.10
2019-04-14T19:16:20.288Z,57.40
2019-04-14T19:18:52.796Z,57.50
2019-04-14T19:21:26.077Z,57.70
2019-04-14T19:23:55.722Z,58.00
2019-04-14T19:26:25.412Z,58.10
2019-04-14T19:28:55.115Z,58.30
2019-04-14T19:31:24.940Z,58.50
2019-04-14T19:33:54.658Z,58.60
2019-04-14T19:36:24.411Z,58.60
2019-04-14T19:38:54.095Z,58.70
2019-04-14T19:41:23.800Z,59.00
2019-04-14T19:43:53.812Z,59.90
2019-04-14T19:46:23.495Z,59.70
2019-04-14T19:48:53.135Z,60.10
2019-04-14T19:51:22.908Z,60.00
2019-04-14T19:53:52.566Z,60.30
2019-04-14T19:56:22.238Z,60.70
2019-04-14T19:58:51.963Z,61.30
2019-04-14T20:01:21.715Z,61.70
2019-04-14T20:03:51.415Z,62.60
2019-04-14T20:06:21.080Z,63.30
2019-04-14T20:08:50.806Z,64.20
2019-04-14T20:11:20.523Z,64.90
2019-04-14T20:13:50.234Z,65.60
2019-04-14T20:16:37.358Z,66.10
2019-04-14T20:19:24.571Z,66.10
2019-04-14T20:22:13.186Z,66.40
2019-04-14T20:24:58.598Z,66.50
2019-04-14T20:27:35.097Z,66.80
2019-04-14T20:30:09.462Z,66.60
2019-04-14T20:32:40.468Z,66.90
2019-04-14T20:35:10.271Z,67.20
2019-04-14T20:37:39.994Z,67.50
2019-04-14T20:40:09.986Z,67.70
2019-04-14T20:42:43.729Z,67.80
2019-04-14T20:45:14.579Z,68.30
2019-04-14T20:47:44.246Z,68.40
2019-04-14T20:50:14.458Z,68.90
2019-04-14T20:52:44.803Z,69.40
2019-04-14T20:55:15.499Z,69.60
2019-04-14T20:57:45.185Z,69.40
2019-04-14T21:00:16.024Z,69.60
2019-04-14T21:02:57.904Z,70.00
2019-04-14T21:05:58.687Z,70.70
2019-04-14T21:08:52.990Z,71.30
2019-04-14T21:11:44.276Z,70.90
2019-04-14T21:14:21.099Z,71.20
2019-04-14T21:17:04.908Z,71.60
2019-04-14T21:20:02.575Z,72.00
2019-04-14T21:22:36.636Z,72.00
2019-04-14T21:25:25.948Z,72.60
2019-04-14T21:28:17.432Z,73.00
2019-04-14T21:30:52.174Z,73.50
2019-04-14T21:33:40.758Z,73.70
2019-04-14T21:36:17.544Z,74.60
2019-04-14T21:38:53.046Z,75.20
2019-04-14T21:41:25.601Z,75.50
2019-04-14T21:43:55.302Z,75.70
2019-04-14T21:46:24.959Z,76.20
2019-04-14T21:48:54.688Z,76.30
2019-04-14T21:51:27.394Z,76.90
2019-04-14T21:53:57.123Z,77.40
2019-04-14T21:56:29.688Z,78.10
2019-04-14T21:59:04.741Z,78.30
2019-04-14T22:01:53.616Z,78.80
2019-04-14T22:04:41.762Z,79.60
2019-04-14T22:07:29.131Z,80.50
2019-04-14T22:10:13.459Z,81.00
2019-04-14T22:12:43.446Z,82.10
2019-04-14T22:15:15.020Z,83.60
2019-04-14T22:17:44.704Z,83.40
2019-04-14T22:20:14.554Z,83.90
2019-04-14T22:22:44.237Z,84.40
2019-04-14T22:25:14.051Z,85.00
2019-04-14T22:27:43.744Z,85.60
2019-04-14T22:30:14.091Z,85.60
2019-04-14T22:32:43.773Z,86.20
2019-04-14T22:35:13.611Z,86.80
2019-04-14T22:37:43.286Z,87.10
2019-04-14T22:40:13.286Z,88.10
2019-04-14T22:42:43.008Z,88.30
2019-04-14T22:45:13.431Z,89.00
2019-04-14T22:47:43.120Z,89.70
2019-04-14T22:50:12.920Z,90.00
2019-04-14T22:52:42.595Z,90.20
2019-04-14T22:55:12.546Z,90.60
2019-04-14T22:57:42.230Z,90.80
2019-04-14T23:00:18.427Z,91.00
2019-04-14T23:02:58.294Z,91.10
2019-04-14T23:05:56.088Z,91.30
2019-04-14T23:08:41.999Z,91.70
2019-04-14T23:11:33.678Z,92.10
2019-04-14T23:14:15.250Z,92.10
2019-04-14T23:17:10.759Z,92.70
2019-04-14T23:19:54.933Z,92.70
2019-04-14T23:22:42.346Z,93.30
2019-04-14T23:25:12.206Z,93.50
2019-04-14T23:27:41.927Z,93.60
2019-04-14T23:30:11.936Z,93.90
2019-04-14T23:32:41.634Z,93.80
2019-04-14T23:35:11.598Z,93.80
2019-04-14T23:37:45.444Z,93.90
2019-04-14T23:40:15.128Z,94.00
2019-04-14T23:42:44.795Z,94.20
2019-04-14T23:45:14.638Z,94.30
2019-04-14T23:47:44.316Z,94.50
2019-04-14T23:50:14.467Z,94.60
2019-04-14T23:52:44.144Z,94.60
2019-04-14T23:55:14.167Z,94.70
2019-04-14T23:57:43.880Z,94.80
